createdAt,value
2017-10-07T00:01:39.701Z,12.70
2017-10-07T00:04:07.955Z,12.70
2017-10-07T00:06:37.111Z,12.60
2017-10-07T00:09:04.560Z,12.60
2017-10-07T00:11:32.055Z,12.70
2017-10-07T00:13:59.512Z,12.60
2017-10-07T00:16:26.976Z,12.60
2017-10-07T00:21:28.250Z,12.70
2017-10-07T00:23:55.701Z,12.70
2017-10-07T00:26:23.176Z,12.70
2017-10-07T00:28:50.760Z,12.60
2017-10-07T00:31:18.219Z,12.70
2017-10-07T00:33:45.698Z,12.70
2017-10-07T00:36:13.161Z,12.70
2017-10-07T00:38:40.664Z,12.70
2017-10-07T00:41:08.118Z,12.70
2017-10-07T00:43:35.578Z,12.70
2017-10-07T00:46:03.077Z,12.80
2017-10-07T00:48:30.540Z,12.80
2017-10-07T00:50:58.017Z,12.80
2017-10-07T00:53:25.481Z,12.70
2017-10-07T00:55:52.953Z,12.70
2017-10-07T00:58:20.416Z,12.70
2017-10-07T01:00:47.904Z,12.70
2017-10-07T01:03:16.122Z,12.70
2017-10-07T01:05:43.580Z,12.70
2017-10-07T01:08:11.062Z,12.70
2017-10-07T01:10:38.544Z,12.70
2017-10-07T01:13:06.809Z,12.70
2017-10-07T01:15:34.274Z,12.60
2017-10-07T01:18:02.503Z,12.60
2017-10-07T01:20:30.047Z,12.60
2017-10-07T01:22:57.521Z,12.60
2017-10-07T01:25:24.981Z,12.60
2017-10-07T01:27:52.499Z,12.50
2017-10-07T01:30:20.730Z,12.50
2017-10-07T01:32:48.185Z,12.50
2017-10-07T01:35:15.667Z,12.50
2017-10-07T01:37:43.149Z,12.40
2017-10-07T01:40:10.606Z,12.40
2017-10-07T01:42:38.813Z,12.40
2017-10-07T01:45:06.293Z,12.40
2017-10-07T01:47:33.788Z,12.40
2017-10-07T01:50:02.977Z,12.30
2017-10-07T01:52:30.471Z,12.30
2017-10-07T01:54:58.685Z,12.20
2017-10-07T01:57:26.152Z,12.20
2017-10-07T01:59:53.632Z,12.20
2017-10-07T02:02:21.113Z,12.20
2017-10-07T02:04:48.570Z,12.20
2017-10-07T02:07:16.801Z,12.20
2017-10-07T02:09:44.281Z,12.10
2017-10-07T02:12:11.742Z,12.20
2017-10-07T02:14:39.550Z,12.10
2017-10-07T02:17:07.004Z,12.10
2017-10-07T02:19:34.564Z,12.10
2017-10-07T02:22:02.021Z,12.10
2017-10-07T02:24:29.475Z,12.00
2017-10-07T02:26:56.965Z,12.00
2017-10-07T02:29:24.421Z,12.00
2017-10-07T02:31:51.896Z,12.00
2017-10-07T02:34:19.359Z,12.00
2017-10-07T02:36:46.841Z,12.00
2017-10-07T02:39:14.333Z,12.00
2017-10-07T02:41:41.812Z,12.00
2017-10-07T02:44:10.204Z,12.00
2017-10-07T02:46:37.725Z,11.90
2017-10-07T02:49:05.256Z,12.00
2017-10-07T02:51:33.506Z,11.90
2017-10-07T02:54:00.970Z,11.90
2017-10-07T02:56:28.425Z,11.90
2017-10-07T02:58:55.922Z,11.90
2017-10-07T03:01:23.373Z,11.90
2017-10-07T03:03:51.601Z,11.80
2017-10-07T03:06:19.090Z,11.80
2017-10-07T03:08:46.548Z,11.80
2017-10-07T03:11:14.773Z,11.80
2017-10-07T03:13:42.260Z,11.80
2017-10-07T03:16:09.729Z,11.70
2017-10-07T03:18:37.224Z,11.70
2017-10-07T03:21:04.686Z,11.70
2017-10-07T03:23:32.170Z,11.70
2017-10-07T03:25:59.627Z,11.70
2017-10-07T03:28:27.102Z,11.70
2017-10-07T03:30:54.558Z,11.70
2017-10-07T03:33:22.034Z,11.70
2017-10-07T03:35:49.489Z,11.70
2017-10-07T03:38:16.968Z,11.80
2017-10-07T03:40:44.433Z,11.80
2017-10-07T03:43:12.650Z,11.80
2017-10-07T03:45:40.129Z,11.70
2017-10-07T03:48:07.608Z,11.80
2017-10-07T03:50:35.078Z,11.80
2017-10-07T03:53:02.570Z,11.80
2017-10-07T03:58:03.865Z,11.80
2017-10-07T04:00:31.349Z,11.70
2017-10-07T04:02:58.826Z,11.70
2017-10-07T04:05:27.057Z,11.70
2017-10-07T04:07:54.533Z,11.70
2017-10-07T04:10:22.033Z,11.70
2017-10-07T04:12:49.533Z,11.80
2017-10-07T04:15:16.993Z,11.80
2017-10-07T04:17:44.457Z,11.80
2017-10-07T04:20:12.255Z,11.80
2017-10-07T04:22:40.513Z,11.80
2017-10-07T04:25:07.969Z,11.70
2017-10-07T04:27:35.421Z,11.80
2017-10-07T04:30:02.905Z,11.80
2017-10-07T04:32:31.169Z,11.80
2017-10-07T04:34:58.638Z,11.80
2017-10-07T04:37:26.870Z,11.90
2017-10-07T04:39:54.406Z,11.80
2017-10-07T04:42:21.870Z,11.80
2017-10-07T04:44:49.338Z,11.90
2017-10-07T04:47:16.814Z,11.80
2017-10-07T04:49:44.265Z,11.80
2017-10-07T04:52:11.800Z,11.80
2017-10-07T04:54:39.262Z,11.80
2017-10-07T04:57:06.753Z,11.80
2017-10-07T04:59:34.229Z,11.80
2017-10-07T05:02:01.707Z,11.80
2017-10-07T05:04:29.961Z,11.80
2017-10-07T05:06:57.421Z,11.80
2017-10-07T05:09:24.889Z,11.80
2017-10-07T05:11:53.149Z,11.80
2017-10-07T05:14:20.609Z,11.80
2017-10-07T05:16:48.077Z,11.80
2017-10-07T05:19:16.330Z,11.80
2017-10-07T05:21:43.788Z,11.70
2017-10-07T05:24:11.262Z,11.70
2017-10-07T05:26:38.740Z,11.70
2017-10-07T05:29:06.969Z,11.70
2017-10-07T05:31:34.453Z,11.70
2017-10-07T05:34:01.913Z,11.70
2017-10-07T05:36:29.417Z,11.70
2017-10-07T05:38:56.896Z,11.60
2017-10-07T05:41:24.378Z,11.60
2017-10-07T05:43:51.854Z,11.70
2017-10-07T05:46:19.329Z,11.70
2017-10-07T05:48:46.801Z,11.70
2017-10-07T05:51:15.221Z,11.70
2017-10-07T05:53:42.688Z,11.70
2017-10-07T05:56:10.160Z,11.70
2017-10-07T05:58:37.650Z,11.70
2017-10-07T06:01:05.147Z,11.70
2017-10-07T06:03:32.602Z,11.70
2017-10-07T06:06:00.059Z,11.70
2017-10-07T06:08:27.616Z,11.70
2017-10-07T06:10:55.049Z,11.70
2017-10-07T06:13:22.533Z,11.80
2017-10-07T06:15:50.017Z,11.70
2017-10-07T06:18:17.464Z,11.70
2017-10-07T06:20:44.993Z,11.80
2017-10-07T06:23:12.478Z,11.80
2017-10-07T06:25:39.931Z,11.80
2017-10-07T06:28:07.434Z,11.80
2017-10-07T06:30:35.704Z,11.90
2017-10-07T06:33:03.156Z,11.90
2017-10-07T06:35:30.695Z,11.90
2017-10-07T06:37:58.158Z,11.90
2017-10-07T06:40:25.646Z,11.90
2017-10-07T06:42:53.117Z,12.00
2017-10-07T06:45:20.564Z,12.00
2017-10-07T06:47:48.058Z,12.00
2017-10-07T06:50:16.760Z,12.10
2017-10-07T06:52:46.113Z,12.10
2017-10-07T06:55:13.659Z,12.10
2017-10-07T06:57:41.180Z,12.10
2017-10-07T07:00:08.946Z,12.20
2017-10-07T07:02:36.692Z,12.20
2017-10-07T07:05:04.369Z,12.20
2017-10-07T07:07:31.869Z,12.20
2017-10-07T07:09:59.358Z,12.20
2017-10-07T07:12:26.828Z,12.20
2017-10-07T07:14:54.297Z,12.30
2017-10-07T07:17:21.834Z,12.30
2017-10-07T07:19:49.345Z,12.30
2017-10-07T07:22:16.807Z,12.40
2017-10-07T07:24:44.357Z,12.40
2017-10-07T07:27:12.067Z,12.40
2017-10-07T07:29:40.086Z,12.40
2017-10-07T07:32:07.582Z,12.50
2017-10-07T07:34:35.218Z,12.50
2017-10-07T07:37:03.001Z,12.50
2017-10-07T07:39:30.646Z,12.50
2017-10-07T07:41:58.917Z,12.40
2017-10-07T07:44:26.407Z,12.40
2017-10-07T07:46:54.855Z,12.40
2017-10-07T07:49:22.615Z,12.40
2017-10-07T07:51:50.119Z,12.40
2017-10-07T07:54:17.597Z,12.50
2017-10-07T07:56:45.202Z,12.50
2017-10-07T07:59:14.009Z,12.60
2017-10-07T08:01:41.942Z,12.50
2017-10-07T08:04:09.489Z,12.60
2017-10-07T08:06:37.179Z,12.60
2017-10-07T08:09:05.007Z,12.70
2017-10-07T08:11:32.680Z,12.70
2017-10-07T08:14:00.152Z,12.70
2017-10-07T08:16:27.889Z,12.80
2017-10-07T08:18:55.591Z,12.90
2017-10-07T08:21:23.948Z,13.00
2017-10-07T08:23:52.365Z,13.00
2017-10-07T08:26:20.600Z,13.10
2017-10-07T08:28:48.467Z,13.10
2017-10-07T08:31:16.186Z,13.20
2017-10-07T08:33:44.639Z,13.20
2017-10-07T08:36:12.333Z,13.20
2017-10-07T08:38:40.205Z,13.20
2017-10-07T08:41:08.530Z,13.30
2017-10-07T08:43:36.276Z,13.30
2017-10-07T08:46:03.993Z,13.30
2017-10-07T08:48:31.487Z,13.30
2017-10-07T08:50:59.791Z,13.50
2017-10-07T08:53:27.333Z,13.40
2017-10-07T08:55:55.070Z,13.50
2017-10-07T08:58:22.707Z,13.60
2017-10-07T09:00:50.453Z,13.70
2017-10-07T09:03:18.428Z,13.70
2017-10-07T09:05:46.897Z,13.70
2017-10-07T09:08:14.375Z,13.70
2017-10-07T09:10:42.045Z,13.70
2017-10-07T09:13:10.479Z,13.70
2017-10-07T09:15:38.183Z,13.60
2017-10-07T09:18:06.760Z,13.50
2017-10-07T09:20:34.279Z,13.50
2017-10-07T09:23:02.126Z,13.40
2017-10-07T09:25:29.942Z,13.40
2017-10-07T09:27:57.640Z,13.30
2017-10-07T09:30:25.141Z,13.40
2017-10-07T09:32:52.716Z,13.50
2017-10-07T09:35:20.365Z,13.60
2017-10-07T09:37:47.844Z,13.70
2017-10-07T09:40:15.328Z,13.80
2017-10-07T09:42:42.805Z,13.80
2017-10-07T09:45:10.536Z,13.80
2017-10-07T09:47:38.194Z,13.80
2017-10-07T09:50:05.857Z,13.70
2017-10-07T09:52:33.690Z,13.70
2017-10-07T09:55:01.246Z,13.70
2017-10-07T09:57:28.814Z,13.70
2017-10-07T09:59:56.488Z,13.60
2017-10-07T10:02:23.980Z,13.60
2017-10-07T10:04:51.602Z,13.50
2017-10-07T10:07:20.700Z,13.40
2017-10-07T10:09:48.173Z,13.40
2017-10-07T10:12:15.653Z,13.30
2017-10-07T10:14:43.402Z,13.40
2017-10-07T10:17:10.907Z,13.40
2017-10-07T10:19:39.337Z,13.50
2017-10-07T10:22:06.793Z,13.50
2017-10-07T10:24:34.444Z,13.40
2017-10-07T10:27:02.306Z,13.40
2017-10-07T10:29:29.961Z,13.40
2017-10-07T10:31:58.460Z,13.40
2017-10-07T10:34:26.718Z,13.40
2017-10-07T10:36:54.271Z,13.40
2017-10-07T10:39:21.747Z,13.40
2017-10-07T10:41:49.220Z,13.40
2017-10-07T10:44:16.945Z,13.30
2017-10-07T10:46:44.448Z,13.30
2017-10-07T10:49:11.919Z,13.20
2017-10-07T10:51:39.480Z,13.20
2017-10-07T10:54:06.928Z,13.20
2017-10-07T10:56:34.512Z,13.20
2017-10-07T10:59:02.708Z,13.20
2017-10-07T11:01:30.385Z,13.20
2017-10-07T11:03:59.012Z,13.30
2017-10-07T11:06:26.548Z,13.30
2017-10-07T11:08:54.420Z,13.30
2017-10-07T11:11:22.196Z,13.30
2017-10-07T11:13:49.949Z,13.30
2017-10-07T11:16:17.404Z,13.30
2017-10-07T11:18:45.068Z,13.40
2017-10-07T11:21:12.959Z,13.40
2017-10-07T11:23:40.484Z,13.30
2017-10-07T11:26:09.030Z,13.30
2017-10-07T11:28:37.352Z,13.40
2017-10-07T11:31:04.897Z,13.30
2017-10-07T11:33:32.532Z,13.30
2017-10-07T11:36:00.881Z,13.30
2017-10-07T11:38:28.362Z,13.30
2017-10-07T11:40:55.809Z,13.30
2017-10-07T11:43:23.291Z,13.30
2017-10-07T11:45:50.753Z,13.30
2017-10-07T11:48:18.218Z,13.20
2017-10-07T11:50:45.693Z,13.20
2017-10-07T11:53:13.929Z,13.30
2017-10-07T11:55:41.413Z,13.30
2017-10-07T11:58:09.670Z,13.40
2017-10-07T12:00:37.141Z,13.30
2017-10-07T12:03:04.613Z,13.40
2017-10-07T12:05:32.877Z,13.40
2017-10-07T12:08:00.418Z,13.40
2017-10-07T12:10:27.881Z,13.40
2017-10-07T12:12:55.358Z,13.40
2017-10-07T12:15:22.845Z,13.50
2017-10-07T12:17:50.297Z,13.50
2017-10-07T12:20:17.811Z,13.50
2017-10-07T12:22:45.280Z,13.60
2017-10-07T12:25:12.777Z,13.60
2017-10-07T12:27:40.251Z,13.60
2017-10-07T12:30:07.750Z,13.50
2017-10-07T12:32:35.206Z,13.50
2017-10-07T12:35:02.698Z,13.50
2017-10-07T12:37:30.152Z,13.50
2017-10-07T12:39:57.705Z,13.50
2017-10-07T12:42:25.953Z,13.50
2017-10-07T12:44:53.405Z,13.50
2017-10-07T12:47:20.870Z,13.50
2017-10-07T12:49:48.340Z,13.50
2017-10-07T12:52:15.805Z,13.50
2017-10-07T12:54:43.282Z,13.40
2017-10-07T12:57:11.534Z,13.30
2017-10-07T12:59:38.985Z,13.30
2017-10-07T13:02:06.433Z,13.30
2017-10-07T13:04:33.930Z,13.30
2017-10-07T13:07:02.141Z,13.20
2017-10-07T13:09:29.661Z,13.20
2017-10-07T13:11:57.900Z,13.20
2017-10-07T13:14:25.353Z,13.20
2017-10-07T13:16:53.778Z,13.20
2017-10-07T13:19:21.234Z,13.20
2017-10-07T13:21:48.698Z,13.20
2017-10-07T13:24:16.174Z,13.20
2017-10-07T13:26:43.650Z,13.20
2017-10-07T13:29:11.132Z,13.20
2017-10-07T13:31:38.580Z,13.20
2017-10-07T13:34:06.044Z,13.20
2017-10-07T13:36:33.526Z,13.20
2017-10-07T13:39:01.018Z,13.10
2017-10-07T13:41:28.506Z,13.10
2017-10-07T13:43:55.960Z,13.10
2017-10-07T13:46:24.978Z,13.00
2017-10-07T13:48:52.433Z,13.00
2017-10-07T13:51:19.913Z,13.00
2017-10-07T13:53:47.376Z,13.00
2017-10-07T13:56:14.854Z,13.10
2017-10-07T13:58:43.066Z,13.10
2017-10-07T14:01:10.547Z,13.10
2017-10-07T14:03:38.002Z,13.10
2017-10-07T14:06:05.496Z,13.10
2017-10-07T14:08:33.764Z,13.00
2017-10-07T14:11:01.989Z,13.00
2017-10-07T14:13:29.467Z,13.00
2017-10-07T14:15:56.922Z,13.00
2017-10-07T14:18:25.417Z,12.90
2017-10-07T14:20:52.885Z,12.90
2017-10-07T14:23:20.347Z,12.90
2017-10-07T14:25:47.829Z,12.90
2017-10-07T14:28:16.050Z,12.90
2017-10-07T14:30:43.550Z,12.90
2017-10-07T14:33:11.792Z,12.90
2017-10-07T14:35:39.273Z,12.80
2017-10-07T14:38:06.723Z,12.80
2017-10-07T14:40:34.182Z,12.80
2017-10-07T14:43:01.666Z,12.80
2017-10-07T14:45:29.886Z,12.80
2017-10-07T14:47:57.917Z,12.70
2017-10-07T14:50:25.392Z,12.70
2017-10-07T14:52:52.865Z,12.70
2017-10-07T14:55:20.394Z,12.80
2017-10-07T14:57:48.662Z,12.80
2017-10-07T15:00:16.941Z,12.80
2017-10-07T15:02:45.161Z,12.80
2017-10-07T15:05:12.653Z,12.70
2017-10-07T15:07:40.118Z,12.80
2017-10-07T15:10:07.565Z,12.80
2017-10-07T15:12:35.037Z,12.80
2017-10-07T15:15:03.297Z,12.80
2017-10-07T15:17:30.759Z,12.80
2017-10-07T15:19:58.309Z,12.80
2017-10-07T15:22:26.020Z,12.80
2017-10-07T15:24:54.672Z,12.80
2017-10-07T15:27:22.190Z,12.80
2017-10-07T15:29:49.880Z,12.80
2017-10-07T15:32:17.535Z,12.80
2017-10-07T15:34:45.272Z,12.80
2017-10-07T15:37:12.721Z,12.90
2017-10-07T15:39:40.510Z,12.80
2017-10-07T15:42:08.337Z,12.80
2017-10-07T15:44:35.798Z,12.90
2017-10-07T15:47:03.285Z,12.90
2017-10-07T15:49:30.746Z,12.90
2017-10-07T15:51:58.364Z,13.00
2017-10-07T15:54:26.252Z,13.00
2017-10-07T15:56:53.744Z,13.00
2017-10-07T15:59:21.586Z,13.00
2017-10-07T16:01:49.269Z,13.10
2017-10-07T16:04:17.096Z,13.10
2017-10-07T16:06:45.264Z,13.10
2017-10-07T16:09:13.500Z,13.20
2017-10-07T16:11:41.191Z,13.20
2017-10-07T16:14:09.501Z,13.20
2017-10-07T16:16:37.103Z,13.20
2017-10-07T16:19:05.415Z,13.30
2017-10-07T16:21:32.925Z,13.30
2017-10-07T16:24:00.528Z,13.30
2017-10-07T16:26:27.993Z,13.30
2017-10-07T16:28:57.273Z,13.30
2017-10-07T16:31:24.948Z,13.30
2017-10-07T16:33:53.348Z,13.30
2017-10-07T16:36:20.982Z,13.30
2017-10-07T16:38:48.694Z,13.30
2017-10-07T16:41:16.324Z,13.40
2017-10-07T16:43:43.981Z,13.40
2017-10-07T16:46:11.513Z,13.40
2017-10-07T16:48:38.969Z,13.40
2017-10-07T16:51:06.717Z,13.40
2017-10-07T16:53:34.303Z,13.40
2017-10-07T16:56:02.075Z,13.50
2017-10-07T16:58:29.918Z,13.50
2017-10-07T17:00:57.622Z,13.40
2017-10-07T17:03:25.302Z,13.40
2017-10-07T17:05:53.009Z,13.40
2017-10-07T17:08:20.691Z,13.40
2017-10-07T17:10:48.434Z,13.40
2017-10-07T17:13:16.096Z,13.30
2017-10-07T17:15:43.925Z,13.40
2017-10-07T17:18:11.723Z,13.40
2017-10-07T17:20:40.226Z,13.40
2017-10-07T17:23:08.633Z,13.40
2017-10-07T17:25:36.246Z,13.40
2017-10-07T17:28:03.732Z,13.40
2017-10-07T17:30:31.231Z,13.40
2017-10-07T17:32:59.685Z,13.40
2017-10-07T17:35:28.544Z,13.40
2017-10-07T17:37:56.011Z,13.40
2017-10-07T17:40:23.490Z,13.40
2017-10-07T17:42:50.953Z,13.40
2017-10-07T17:45:18.437Z,13.40
2017-10-07T17:47:46.665Z,13.30
2017-10-07T17:50:14.109Z,13.30
2017-10-07T17:52:41.616Z,13.30
2017-10-07T17:55:09.857Z,13.40
2017-10-07T17:57:37.321Z,13.40
2017-10-07T18:00:04.811Z,13.30
2017-10-07T18:02:33.042Z,13.30
2017-10-07T18:05:00.520Z,13.30
2017-10-07T18:07:28.890Z,13.30
2017-10-07T18:09:56.365Z,13.30
2017-10-07T18:12:23.841Z,13.30
2017-10-07T18:14:52.099Z,13.40
2017-10-07T18:17:19.563Z,13.40
2017-10-07T18:19:47.183Z,13.40
2017-10-07T18:22:14.673Z,13.40
2017-10-07T18:24:42.137Z,13.40
2017-10-07T18:27:10.756Z,13.40
2017-10-07T18:29:38.227Z,13.40
2017-10-07T18:32:06.155Z,13.40
2017-10-07T18:34:33.848Z,13.40
2017-10-07T18:37:01.592Z,13.40
2017-10-07T18:39:29.867Z,13.40
2017-10-07T18:41:57.646Z,13.40
2017-10-07T18:44:25.965Z,13.40
2017-10-07T18:46:53.456Z,13.40
2017-10-07T18:49:20.971Z,13.40
2017-10-07T18:51:49.230Z,13.40
2017-10-07T18:54:16.692Z,13.40
2017-10-07T18:56:44.423Z,13.40
2017-10-07T18:59:11.896Z,13.40
2017-10-07T19:01:40.118Z,13.40
2017-10-07T19:04:07.604Z,13.40
2017-10-07T19:06:35.066Z,13.40
2017-10-07T19:09:02.529Z,13.50
2017-10-07T19:11:30.034Z,13.50
2017-10-07T19:13:59.182Z,13.60
2017-10-07T19:16:26.719Z,13.60
2017-10-07T19:18:54.289Z,13.60
2017-10-07T19:21:21.968Z,13.70
2017-10-07T19:23:49.619Z,13.70
2017-10-07T19:26:17.142Z,13.80
2017-10-07T19:28:44.799Z,13.80
2017-10-07T19:31:13.157Z,13.80
2017-10-07T19:33:40.893Z,13.80
2017-10-07T19:36:08.647Z,13.90
2017-10-07T19:38:36.387Z,13.90
2017-10-07T19:41:04.065Z,13.90
2017-10-07T19:43:31.581Z,13.90
2017-10-07T19:45:59.835Z,13.90
2017-10-07T19:48:27.292Z,13.90
2017-10-07T19:50:55.024Z,13.90
2017-10-07T19:53:22.635Z,13.90
2017-10-07T19:55:50.132Z,13.90
2017-10-07T19:58:17.838Z,13.90
2017-10-07T20:00:45.284Z,13.90
2017-10-07T20:03:12.963Z,13.80
2017-10-07T20:05:40.608Z,13.80
2017-10-07T20:08:08.113Z,13.80
2017-10-07T20:10:35.648Z,13.80
2017-10-07T20:13:03.865Z,13.90
2017-10-07T20:15:31.362Z,13.90
2017-10-07T20:17:58.801Z,13.90
2017-10-07T20:20:26.269Z,13.90
2017-10-07T20:22:53.745Z,13.90
2017-10-07T20:25:21.188Z,13.90
2017-10-07T20:27:48.665Z,13.90
2017-10-07T20:30:16.885Z,13.90
2017-10-07T20:32:44.361Z,13.90
2017-10-07T20:35:13.431Z,14.00
2017-10-07T20:37:40.909Z,13.90
2017-10-07T20:40:08.466Z,14.00
2017-10-07T20:42:35.933Z,14.00
2017-10-07T20:45:03.393Z,14.00
2017-10-07T20:47:30.932Z,14.00
2017-10-07T20:49:58.416Z,14.00
2017-10-07T20:52:25.894Z,14.00
2017-10-07T20:54:53.381Z,14.10
2017-10-07T20:57:21.596Z,14.10
2017-10-07T20:59:49.052Z,14.10
2017-10-07T21:02:16.536Z,14.10
2017-10-07T21:04:43.997Z,14.10
2017-10-07T21:07:11.456Z,14.10
2017-10-07T21:09:38.973Z,14.10
2017-10-07T21:12:06.433Z,14.10
2017-10-07T21:14:33.903Z,14.20
2017-10-07T21:17:01.409Z,14.10
2017-10-07T21:19:28.861Z,14.10
2017-10-07T21:21:56.341Z,14.20
2017-10-07T21:24:23.801Z,14.20
2017-10-07T21:26:51.285Z,14.20
2017-10-07T21:29:18.871Z,14.20
2017-10-07T21:31:46.317Z,14.20
2017-10-07T21:34:13.785Z,14.20
2017-10-07T21:36:41.277Z,14.20
2017-10-07T21:39:08.732Z,14.20
2017-10-07T21:41:36.204Z,14.20
2017-10-07T21:44:03.670Z,14.20
2017-10-07T21:46:32.625Z,14.20
2017-10-07T21:49:00.085Z,14.20
2017-10-07T21:51:27.550Z,14.20
2017-10-07T21:53:55.029Z,14.20
2017-10-07T21:56:23.285Z,14.20
2017-10-07T21:58:50.737Z,14.20
2017-10-07T22:01:18.211Z,14.20
2017-10-07T22:03:46.627Z,14.10
2017-10-07T22:06:14.109Z,14.10
2017-10-07T22:08:41.628Z,14.20
2017-10-07T22:11:09.089Z,14.20
2017-10-07T22:13:36.545Z,14.20
2017-10-07T22:16:04.034Z,14.20
2017-10-07T22:18:32.456Z,14.20
2017-10-07T22:20:59.917Z,14.20
2017-10-07T22:23:27.378Z,14.20
2017-10-07T22:25:55.628Z,14.20
2017-10-07T22:28:23.095Z,14.20
2017-10-07T22:30:50.557Z,14.20
2017-10-07T22:33:18.818Z,14.20
2017-10-07T22:35:46.274Z,14.20
2017-10-07T22:38:13.757Z,14.20
2017-10-07T22:40:41.246Z,14.20
2017-10-07T22:43:08.717Z,14.20
2017-10-07T22:45:36.210Z,14.20
2017-10-07T22:48:03.669Z,14.20
2017-10-07T22:50:31.121Z,14.10
2017-10-07T22:52:58.593Z,14.20
2017-10-07T22:55:26.072Z,14.20
2017-10-07T22:57:53.533Z,14.20
2017-10-07T23:00:21.761Z,14.10
2017-10-07T23:02:49.237Z,14.10
2017-10-07T23:05:16.699Z,14.10
2017-10-07T23:07:44.180Z,14.10
2017-10-07T23:10:11.652Z,14.10
2017-10-07T23:12:39.881Z,14.10
2017-10-07T23:15:07.345Z,14.10
2017-10-07T23:17:34.841Z,14.00
2017-10-07T23:20:03.994Z,13.90
2017-10-07T23:22:33.242Z,13.90
2017-10-07T23:25:00.738Z,13.90
2017-10-07T23:27:28.193Z,13.80
2017-10-07T23:29:55.741Z,13.70
2017-10-07T23:32:23.195Z,13.70
2017-10-07T23:34:50.662Z,13.60
2017-10-07T23:37:18.133Z,13.60
2017-10-07T23:39:45.610Z,13.60
2017-10-07T23:42:13.088Z,13.50
2017-10-07T23:44:40.544Z,13.50
2017-10-07T23:47:10.873Z,13.50
2017-10-07T23:49:38.329Z,13.50
2017-10-07T23:52:05.841Z,13.60
2017-10-07T23:54:34.088Z,13.60
2017-10-07T23:57:02.321Z,13.50
2017-10-07T23:59:29.773Z,13.50
